Time;durP1;ratioP1;P1;durP2;ratioP2;P2;SDS_P1;SDS_P2;PMS_P1;PMS_P2;Temp;Humidity;BMP_temperature;BMP_pressure;BME280_temperature;BME280_humidity;BME280_pressure;Samples;Min_cycle;Max_cycle;Signal;HPM_P1;HPM_P2
2023/04/29 00:00:49;;;;;;;3.83;2.92;;;;;;;19.51;55.89;96399.34;10497260;28;20125;-56
2023/04/29 00:06:10;;;;;;;3.40;2.50;;;;;;;19.51;55.81;96402.06;10510350;28;20045;-56
2023/04/29 00:11:29;;;;;;;3.55;2.80;;;;;;;19.50;55.80;96391.56;10510332;28;20048;-56
2023/04/29 00:16:49;;;;;;;4.50;2.40;;;;;;;19.50;55.73;96389.69;10509333;28;20477;-56
2023/04/29 00:22:08;;;;;;;3.88;2.50;;;;;;;19.49;55.67;96398.91;10510021;28;20420;-56
2023/04/29 00:27:27;;;;;;;3.17;2.60;;;;;;;19.48;55.57;96391.94;10495864;28;20045;-56
2023/04/29 00:32:47;;;;;;;2.65;2.40;;;;;;;19.47;55.78;96403.84;10508115;28;20041;-56
2023/04/29 00:38:06;;;;;;;3.15;2.30;;;;;;;19.47;55.65;96401.13;10509175;28;20051;-56
2023/04/29 00:43:26;;;;;;;3.78;2.35;;;;;;;19.46;55.51;96399.53;10509259;28;20036;-56
2023/04/29 00:48:45;;;;;;;2.63;2.42;;;;;;;19.45;55.54;96403.38;10509026;28;20516;-56
2023/04/29 00:54:06;;;;;;;3.30;2.40;;;;;;;19.44;55.44;96398.31;10509045;28;20049;-56
2023/04/29 00:59:30;;;;;;;2.90;2.47;;;;;;;19.44;55.39;96407.19;10508690;28;20408;-56
2023/04/29 01:04:50;;;;;;;2.95;2.33;;;;;;;19.42;55.46;96409.44;10494707;28;20114;-47
2023/04/29 01:10:44;;;;;;;3.70;2.50;;;;;;;19.41;55.50;96397.06;10493368;28;20052;-48
2023/04/29 01:16:09;;;;;;;2.75;2.25;;;;;;;19.40;55.25;96395.47;10471841;28;20053;-49
2023/04/29 01:21:30;;;;;;;2.45;2.17;;;;;;;19.41;55.30;96393.59;10493399;28;20048;-47
2023/04/29 01:27:15;;;;;;;3.05;2.53;;;;;;;19.39;55.40;96383.13;10514087;28;20052;-49
2023/04/29 01:32:59;;;;;;;2.80;2.30;;;;;;;19.38;55.43;96397.72;10500786;28;20051;-49
2023/04/29 01:38:22;;;;;;;2.90;2.35;;;;;;;19.38;55.46;96396.94;10501689;28;20036;-48
2023/04/29 01:43:44;;;;;;;3.78;2.40;;;;;;;19.36;55.37;96392.66;10515933;28;20040;-47
2023/04/29 01:49:12;;;;;;;2.63;2.22;;;;;;;19.35;55.46;96390.31;10487824;28;20385;-47
2023/04/29 01:54:37;;;;;;;3.47;2.30;;;;;;;19.36;55.38;96395.34;10486739;28;20036;-49
2023/04/29 01:59:56;;;;;;;2.45;2.10;;;;;;;19.34;55.38;96394.91;10500127;28;20086;-47
2023/04/29 02:05:34;;;;;;;3.15;2.15;;;;;;;19.34;55.31;96396.81;10501896;28;20154;-48
2023/04/29 02:10:56;;;;;;;2.20;1.90;;;;;;;19.33;55.21;96397.94;10499769;28;20044;-48
2023/04/29 02:16:33;;;;;;;2.20;2.00;;;;;;;19.32;55.35;96401.75;10499559;28;20044;-49
2023/04/29 02:21:56;;;;;;;2.13;1.88;;;;;;;19.31;55.22;96395.56;10499467;28;20052;-48
2023/04/29 02:27:17;;;;;;;3.15;2.10;;;;;;;19.31;55.17;96392.09;10499146;28;20048;-49
2023/04/29 02:32:38;;;;;;;2.88;2.03;;;;;;;19.31;55.11;96392.09;10513656;28;20064;-46
2023/04/29 02:37:57;;;;;;;2.00;1.80;;;;;;;19.29;54.96;96386.22;10497684;28;20504;-47
2023/04/29 02:43:16;;;;;;;2.05;1.73;;;;;;;19.28;54.93;96381.94;10513860;28;20560;-49
2023/04/29 02:48:37;;;;;;;2.70;2.03;;;;;;;19.28;54.87;96381.94;10513473;28;20040;-47
2023/04/29 02:53:57;;;;;;;2.15;1.83;;;;;;;19.26;54.98;96368.75;10513436;28;20051;-46
2023/04/29 02:59:16;;;;;;;1.92;1.73;;;;;;;19.27;54.94;96385.78;10497898;28;20404;-48
2023/04/29 03:04:36;;;;;;;2.70;1.90;;;;;;;19.25;54.94;96386.09;10513038;28;20443;-47
2023/04/29 03:09:55;;;;;;;1.85;1.67;;;;;;;19.25;55.07;96385.28;10497532;28;20485;-47
2023/04/29 03:15:15;;;;;;;2.50;1.90;;;;;;;19.25;55.02;96379.88;10484115;28;20052;-48
2023/04/29 03:20:36;;;;;;;2.35;1.90;;;;;;;19.23;55.06;96374.84;10497065;28;20040;-47
2023/04/29 03:25:57;;;;;;;2.58;2.00;;;;;;;19.23;55.03;96379.44;10496794;28;20536;-48
2023/04/29 03:31:20;;;;;;;2.60;1.95;;;;;;;19.22;54.96;96367.06;10496592;28;20040;-47
2023/04/29 03:36:40;;;;;;;3.20;1.90;;;;;;;19.22;54.88;96375.94;10499890;28;20044;-49
2023/04/29 03:42:01;;;;;;;2.08;1.75;;;;;;;19.20;54.96;96372.00;10496230;28;20051;-47
2023/04/29 03:47:21;;;;;;;2.20;1.85;;;;;;;19.20;54.90;96367.41;10496128;28;20056;-50
2023/04/29 03:52:41;;;;;;;1.70;1.60;;;;;;;19.21;54.88;96365.47;10495925;28;20045;-50
2023/04/29 03:58:05;;;;;;;2.95;1.70;;;;;;;19.17;54.98;96371.56;10495525;28;20040;-46
2023/04/29 04:03:26;;;;;;;2.67;1.90;;;;;;;19.17;55.14;96376.19;10495640;28;20047;-50
2023/04/29 04:08:49;;;;;;;2.17;1.98;;;;;;;19.18;55.19;96377.75;10495276;28;20098;-50
2023/04/29 04:14:14;;;;;;;2.17;1.73;;;;;;;19.18;55.30;96372.34;10495660;28;20401;-49
2023/04/29 04:19:33;;;;;;;2.13;1.83;;;;;;;19.19;55.62;96371.22;10494816;28;20094;-46
2023/04/29 04:24:56;;;;;;;4.38;1.60;;;;;;;19.17;55.57;96376.97;10494834;28;20036;-48
2023/04/29 04:30:16;;;;;;;1.52;1.42;;;;;;;19.17;55.66;96387.75;10494541;28;20459;-47
2023/04/29 04:35:36;;;;;;;3.45;2.00;;;;;;;19.16;55.67;96391.56;10471648;28;20563;-50
2023/04/29 04:40:55;;;;;;;2.47;1.83;;;;;;;19.16;55.81;96385.38;10509357;28;20045;-49
2023/04/29 04:46:29;;;;;;;2.22;1.80;;;;;;;19.15;55.82;96373.81;10480380;28;20044;-49
2023/04/29 04:52:01;;;;;;;2.40;1.90;;;;;;;19.16;55.99;96377.28;10494089;28;20047;-46
2023/04/29 04:57:21;;;;;;;4.65;1.60;;;;;;;19.15;55.98;96379.19;10493715;28;20036;-46
2023/04/29 05:02:41;;;;;;;2.05;1.83;;;;;;;19.15;56.05;96379.19;10493184;28;20053;-48
2023/04/29 05:08:01;;;;;;;2.30;1.42;;;;;;;19.15;56.12;96376.50;10508618;28;20045;-46
2023/04/29 05:13:28;;;;;;;2.17;1.60;;;;;;;19.15;56.04;96368.41;10493434;28;20114;-46
2023/04/29 05:18:48;;;;;;;1.65;1.55;;;;;;;19.14;56.04;96383.00;10493240;28;20041;-47
2023/04/29 05:24:09;;;;;;;2.17;1.48;;;;;;;19.14;56.07;96379.53;10493196;28;20090;-47
2023/04/29 05:29:29;;;;;;;2.65;1.52;;;;;;;19.12;56.16;96379.06;10508258;28;20055;-47
2023/04/29 05:34:52;;;;;;;2.35;1.70;;;;;;;19.12;56.06;96389.88;10486408;28;20075;-48
2023/04/29 05:40:12;;;;;;;1.70;1.60;;;;;;;19.12;56.14;96390.66;10494869;28;20051;-46
2023/04/29 05:45:33;;;;;;;3.50;1.45;;;;;;;19.11;56.25;96397.19;10492871;28;20480;-48
2023/04/29 05:50:53;;;;;;;1.45;1.35;;;;;;;19.11;56.51;96393.69;10508007;28;20053;-48
2023/04/29 05:56:12;;;;;;;1.27;1.17;;;;;;;19.12;56.47;96398.75;10492581;28;20451;-47
2023/04/29 06:01:33;;;;;;;1.60;1.30;;;;;;;19.11;56.10;96399.88;10492752;28;20049;-47
2023/04/29 06:06:56;;;;;;;1.85;1.40;;;;;;;19.12;55.75;96395.28;10492306;28;20473;-48
2023/04/29 06:12:34;;;;;;;2.00;1.50;;;;;;;19.11;55.23;96397.19;10495548;28;20040;-48
2023/04/29 06:17:53;;;;;;;1.55;1.45;;;;;;;19.12;55.00;96408.78;10501246;28;20052;-48
2023/04/29 06:23:14;;;;;;;1.95;1.60;;;;;;;19.12;54.95;96401.44;10499471;28;20040;-50
2023/04/29 06:28:34;;;;;;;1.40;1.30;;;;;;;19.15;55.01;96405.38;10499280;28;20412;-47
2023/04/29 06:33:54;;;;;;;1.83;1.52;;;;;;;19.16;54.94;96415.88;10494876;28;20060;-49
2023/04/29 06:39:14;;;;;;;1.60;1.50;;;;;;;19.19;54.94;96416.31;10498480;28;20094;-47
2023/04/29 06:45:00;;;;;;;1.52;1.42;;;;;;;19.22;55.28;96411.06;10498199;28;20040;-49
2023/04/29 06:50:32;;;;;;;1.67;1.52;;;;;;;19.25;55.23;96409.59;10498328;28;20045;-49
2023/04/29 06:55:52;;;;;;;1.65;1.50;;;;;;;19.27;55.59;96412.78;10513235;28;20440;-49
2023/04/29 07:01:13;;;;;;;1.73;1.42;;;;;;;19.29;55.50;96414.03;10513023;28;20041;-49
2023/04/29 07:06:32;;;;;;;1.60;1.50;;;;;;;19.30;55.23;96412.09;10512922;28;20394;-49
2023/04/29 07:11:52;;;;;;;1.63;1.50;;;;;;;19.31;55.34;96402.91;10512592;28;20040;-47
2023/04/29 07:17:12;;;;;;;1.98;1.80;;;;;;;19.35;55.21;96398.41;10512431;28;20040;-50
2023/04/29 07:22:32;;;;;;;3.30;3.00;;;;;;;19.28;53.23;96401.63;10496540;28;20032;-48
2023/04/29 07:27:51;;;;;;;4.05;3.50;;;;;;;19.13;52.33;96397.66;10497071;28;20048;-47
2023/04/29 07:33:10;;;;;;;6.93;5.88;;;;;;;19.05;52.71;96411.19;10494681;28;20110;-48
2023/04/29 07:38:29;;;;;;;4.10;3.55;;;;;;;18.97;52.93;96404.75;10496553;28;20037;-50
2023/04/29 07:43:50;;;;;;;3.15;2.80;;;;;;;19.02;54.02;96411.88;10496148;28;20036;-49
2023/04/29 07:49:09;;;;;;;4.65;4.20;;;;;;;19.05;52.88;96430.91;10496026;28;20044;-47
2023/04/29 07:54:29;;;;;;;88.03;55.70;;;;;;;19.13;53.39;96419.25;10481518;28;20036;-46
2023/04/29 07:59:53;;;;;;;43.42;26.20;;;;;;;19.22;53.85;96416.47;10495465;28;20049;-47
2023/04/29 08:05:13;;;;;;;42.33;28.70;;;;;;;19.28;53.80;96415.13;10495281;28;20036;-47
2023/04/29 08:10:36;;;;;;;41.25;26.13;;;;;;;19.33;53.77;96425.75;10510376;28;20048;-47
2023/04/29 08:15:56;;;;;;;39.17;24.88;;;;;;;19.40;53.72;96411.69;10509983;28;20040;-49
2023/04/29 08:21:15;;;;;;;36.45;23.50;;;;;;;19.44;53.76;96423.41;10509895;28;20040;-49
2023/04/29 08:26:35;;;;;;;33.38;22.02;;;;;;;19.46;53.80;96426.56;10509604;28;20040;-48
2023/04/29 08:31:54;;;;;;;31.10;20.20;;;;;;;19.48;53.58;96427.06;10495786;28;20052;-49
2023/04/29 08:37:15;;;;;;;28.02;18.85;;;;;;;19.51;53.67;96422.88;10495316;28;20060;-49
2023/04/29 08:42:35;;;;;;;27.08;17.55;;;;;;;19.55;53.52;96429.19;10509183;28;20051;-48
2023/04/29 08:47:56;;;;;;;29.23;18.63;;;;;;;19.56;53.73;96426.16;10509090;28;20052;-47
2023/04/29 08:53:15;;;;;;;26.45;16.65;;;;;;;19.60;53.78;96425.50;10508748;28;20040;-47
2023/04/29 08:58:38;;;;;;;23.15;16.00;;;;;;;19.63;53.71;96430.25;10508809;28;20036;-49
2023/04/29 09:04:10;;;;;;;27.02;15.85;;;;;;;19.65;53.78;96423.38;10494912;28;20044;-48
2023/04/29 09:09:29;;;;;;;23.33;15.63;;;;;;;19.66;53.73;96424.16;10495478;28;20079;-48
2023/04/29 09:14:49;;;;;;;24.73;14.85;;;;;;;19.68;53.84;96428.13;10508429;28;20044;-50
2023/04/29 09:20:29;;;;;;;23.70;13.98;;;;;;;19.71;53.83;96435.56;10508592;28;20041;-49
2023/04/29 09:25:57;;;;;;;21.38;13.32;;;;;;;19.72;53.91;96442.56;10508369;28;20040;-48
2023/04/29 09:31:26;;;;;;;21.17;13.70;;;;;;;19.77;53.91;96446.19;10508256;28;20044;-49
2023/04/29 09:36:48;;;;;;;19.92;13.52;;;;;;;19.79;53.81;96455.53;10496283;28;20500;-49
2023/04/29 09:42:08;;;;;;;20.30;12.80;;;;;;;19.82;53.66;96454.88;10508044;28;20044;-47
2023/04/29 09:47:31;;;;;;;17.83;11.60;;;;;;;19.85;53.45;96458.81;10512951;28;20051;-49
2023/04/29 09:52:51;;;;;;;17.23;10.57;;;;;;;19.88;53.51;96480.56;10515735;28;20043;-48
2023/04/29 09:58:27;;;;;;;16.30;10.63;;;;;;;19.89;53.46;96474.03;10515537;28;20082;-48
2023/04/29 10:03:47;;;;;;;14.23;10.70;;;;;;;19.91;53.47;96474.47;10515251;28;20037;-47
2023/04/29 10:09:07;;;;;;;18.30;10.30;;;;;;;19.92;53.36;96467.97;10515076;28;20048;-47
2023/04/29 10:14:27;;;;;;;16.25;9.73;;;;;;;19.93;53.28;96461.44;10515608;28;20036;-47
2023/04/29 10:19:55;;;;;;;18.17;10.40;;;;;;;19.94;53.23;96471.13;10514582;28;20037;-50
2023/04/29 10:25:17;;;;;;;16.97;10.27;;;;;;;19.95;53.19;96507.03;10500931;28;20397;-48
2023/04/29 10:30:37;;;;;;;15.05;9.32;;;;;;;19.96;53.28;96505.94;10499359;28;20051;-48
2023/04/29 10:35:57;;;;;;;15.75;9.65;;;;;;;19.97;53.38;96502.09;10500014;28;20056;-47
2023/04/29 10:41:24;;;;;;;16.52;9.10;;;;;;;19.99;53.50;96502.56;10513613;28;20044;-47
2023/04/29 10:46:43;;;;;;;11.45;7.65;;;;;;;20.00;53.42;96495.25;10499264;28;20041;-47
2023/04/29 10:52:04;;;;;;;14.45;9.23;;;;;;;20.00;53.42;96487.91;10513241;28;20048;-50
2023/04/29 10:57:24;;;;;;;15.57;8.05;;;;;;;20.03;53.42;96491.84;10512353;28;20040;-47
2023/04/29 11:02:43;;;;;;;14.85;8.48;;;;;;;20.04;53.52;96486.13;10512981;28;20447;-49
2023/04/29 11:08:15;;;;;;;15.73;8.10;;;;;;;20.05;53.68;96489.59;10512795;28;20512;-49
2023/04/29 11:13:39;;;;;;;12.95;7.97;;;;;;;20.05;53.67;96495.81;10512757;28;20090;-47
2023/04/29 11:19:08;;;;;;;9.80;6.60;;;;;;;20.07;53.64;96499.00;10512300;28;20079;-49
2023/04/29 11:24:28;;;;;;;13.63;7.75;;;;;;;20.08;53.70;96494.38;10512409;28;20044;-51
2023/04/29 11:29:49;;;;;;;10.43;7.00;;;;;;;20.07;53.69;96504.41;10496911;28;20048;-46
2023/04/29 11:35:10;;;;;;;10.23;5.88;;;;;;;20.08;53.92;96511.38;10504277;28;20048;-47
2023/04/29 11:40:31;;;;;;;10.00;6.68;;;;;;;20.10;53.63;96521.84;10510926;28;20044;-47
2023/04/29 11:45:52;;;;;;;10.23;6.55;;;;;;;20.10;54.13;96522.63;10499657;28;20056;-49
2023/04/29 11:51:12;;;;;;;10.38;5.47;;;;;;;20.14;53.96;96520.84;10512055;28;20041;-48
2023/04/29 11:56:32;;;;;;;6.22;4.88;;;;;;;20.14;54.11;96522.78;10510626;28;20481;-48
2023/04/29 12:01:51;;;;;;;9.63;6.55;;;;;;;20.17;54.44;96522.13;10508520;28;20090;-48
2023/04/29 12:07:15;;;;;;;11.07;6.85;;;;;;;20.18;56.19;96534.50;10508462;28;20040;-48
2023/04/29 12:12:36;;;;;;;13.13;7.72;;;;;;;20.18;57.11;96542.59;10508322;28;20040;-48
2023/04/29 12:17:55;;;;;;;12.70;8.07;;;;;;;20.19;57.11;96532.56;10481395;28;20110;-46
2023/04/29 12:23:17;;;;;;;13.20;8.63;;;;;;;20.21;57.90;96527.63;10510062;28;20036;-48
2023/04/29 12:28:40;;;;;;;12.90;8.85;;;;;;;20.22;59.30;96530.00;10509652;28;20488;-46
2023/04/29 12:34:02;;;;;;;7.13;5.47;;;;;;;20.20;55.73;96526.06;10504777;28;20048;-46
2023/04/29 12:39:22;;;;;;;4.95;3.63;;;;;;;20.18;53.12;96528.31;10509256;28;20067;-55
2023/04/29 12:44:47;;;;;;;6.45;3.13;;;;;;;20.09;51.22;96528.38;10495981;28;20071;-57
2023/04/29 12:50:07;;;;;;;2.78;2.17;;;;;;;20.05;52.47;96543.69;10509079;28;20463;-55
2023/04/29 12:55:26;;;;;;;6.10;2.53;;;;;;;20.06;53.13;96565.00;10493883;28;20036;-56
2023/04/29 13:00:46;;;;;;;2.35;2.15;;;;;;;20.07;53.27;96568.47;10508656;28;20047;-58
2023/04/29 13:06:07;;;;;;;3.28;2.30;;;;;;;20.10;53.63;96557.00;10508816;28;20037;-54
2023/04/29 13:11:27;;;;;;;3.20;2.45;;;;;;;20.10;53.87;96557.00;10508611;28;20500;-58
2023/04/29 13:16:46;;;;;;;4.38;1.92;;;;;;;20.11;53.98;96551.28;10508463;28;20032;-57
2023/04/29 13:22:06;;;;;;;2.25;1.88;;;;;;;20.10;54.11;96551.59;10513137;28;20036;-56
2023/04/29 13:27:25;;;;;;;3.25;2.40;;;;;;;20.11;54.32;96562.09;10516876;28;20043;-57
2023/04/29 13:32:45;;;;;;;3.95;2.40;;;;;;;20.10;54.22;96565.91;10515799;28;20047;-57
2023/04/29 13:38:04;;;;;;;3.72;2.50;;;;;;;20.10;54.28;96573.25;10516316;28;20400;-56
2023/04/29 13:43:24;;;;;;;3.20;2.28;;;;;;;20.09;54.40;96577.88;10516269;28;20036;-52
2023/04/29 13:48:44;;;;;;;4.28;1.95;;;;;;;20.09;54.59;96571.66;10515937;28;20102;-56
2023/04/29 13:54:03;;;;;;;2.47;2.28;;;;;;;20.09;54.53;96579.75;10515900;28;20481;-58
2023/04/29 13:59:22;;;;;;;3.25;2.17;;;;;;;20.08;54.52;96578.97;10515498;28;20067;-56
2023/04/29 14:04:42;;;;;;;2.35;2.15;;;;;;;20.08;54.66;96575.50;10515503;28;20040;-56
2023/04/29 14:10:02;;;;;;;2.15;1.95;;;;;;;20.07;54.56;96574.72;10515018;28;20048;-59
2023/04/29 14:15:21;;;;;;;2.13;1.92;;;;;;;20.06;54.56;96575.81;10514985;28;20408;-57
2023/04/29 14:20:41;;;;;;;2.35;2.15;;;;;;;20.07;54.63;96580.13;10514496;28;20047;-56
2023/04/29 14:26:00;;;;;;;4.43;1.67;;;;;;;20.06;54.31;96583.16;10514544;28;20090;-57
2023/04/29 14:31:20;;;;;;;3.50;2.05;;;;;;;20.05;54.42;96587.78;10512973;28;20040;-57
2023/04/29 14:36:39;;;;;;;2.30;1.95;;;;;;;20.06;54.57;96591.25;10502436;28;20056;-56
2023/04/29 14:41:59;;;;;;;3.22;2.25;;;;;;;20.05;54.69;96598.59;10513789;28;20040;-56
2023/04/29 14:47:19;;;;;;;3.60;1.90;;;;;;;20.06;54.67;96604.78;10513559;28;20041;-57
2023/04/29 14:52:38;;;;;;;2.60;2.05;;;;;;;20.04;54.68;96607.03;10513385;28;20508;-53
2023/04/29 14:57:58;;;;;;;2.75;1.88;;;;;;;20.03;54.96;96611.66;10513412;28;20049;-54
2023/04/29 15:03:17;;;;;;;4.25;2.13;;;;;;;20.05;55.68;96614.00;10513013;28;20063;-49
2023/04/29 15:08:37;;;;;;;2.55;2.10;;;;;;;20.05;56.02;96622.09;10507993;28;20103;-54
2023/04/29 15:13:56;;;;;;;3.00;1.88;;;;;;;20.05;56.44;96616.69;10512028;28;20667;-55
2023/04/29 15:19:16;;;;;;;2.78;1.65;;;;;;;20.05;56.50;96630.22;10498632;28;20049;-54
2023/04/29 15:24:35;;;;;;;3.20;1.90;;;;;;;20.06;56.70;96637.22;10511371;28;20044;-56
2023/04/29 15:29:56;;;;;;;2.28;1.95;;;;;;;20.05;57.00;96635.63;10511265;28;20553;-48
2023/04/29 15:35:16;;;;;;;2.17;1.88;;;;;;;20.06;57.12;96646.13;10503984;28;20562;-47
2023/04/29 15:40:35;;;;;;;2.92;2.05;;;;;;;20.05;57.03;96647.25;10498034;28;20049;-55
2023/04/29 15:45:55;;;;;;;4.03;1.60;;;;;;;20.04;56.73;96661.09;10511213;28;20040;-58
2023/04/29 15:51:14;;;;;;;2.03;1.83;;;;;;;20.05;56.90;96662.66;10497400;28;20048;-56
2023/04/29 15:56:33;;;;;;;2.67;1.83;;;;;;;20.03;56.96;96662.22;10511012;28;20504;-58
2023/04/29 16:01:53;;;;;;;1.88;1.73;;;;;;;20.04;57.20;96682.75;10510708;28;20063;-56
2023/04/29 16:07:12;;;;;;;1.95;1.85;;;;;;;20.03;57.14;96684.66;10497202;28;20051;-58
2023/04/29 16:12:32;;;;;;;1.98;1.63;;;;;;;20.04;57.35;96698.97;10510237;28;20048;-57
2023/04/29 16:17:52;;;;;;;1.63;1.50;;;;;;;20.03;57.34;96691.97;10510202;28;20382;-58
2023/04/29 16:23:12;;;;;;;3.80;1.98;;;;;;;20.03;57.27;96705.47;10509829;28;20048;-46
2023/04/29 16:28:31;;;;;;;1.63;1.40;;;;;;;20.03;57.30;96713.59;10509823;28;20041;-48
2023/04/29 16:33:51;;;;;;;2.67;2.03;;;;;;;20.03;57.37;96719.00;10505642;28;20103;-47
2023/04/29 16:39:10;;;;;;;2.17;1.73;;;;;;;20.03;57.23;96727.94;10496179;28;20051;-46
2023/04/29 16:44:30;;;;;;;2.78;1.70;;;;;;;20.04;56.94;96736.81;10509238;28;20051;-51
2023/04/29 16:49:49;;;;;;;1.75;1.65;;;;;;;20.02;56.91;96744.47;10509186;28;20048;-52
2023/04/29 16:55:11;;;;;;;1.80;1.70;;;;;;;20.02;56.87;96744.47;10508253;28;20443;-54
2023/04/29 17:00:31;;;;;;;2.85;1.65;;;;;;;20.00;56.91;96757.53;10508780;28;20036;-53
2023/04/29 17:05:50;;;;;;;2.85;1.70;;;;;;;20.01;56.74;96764.50;10508644;28;20051;-51
2023/04/29 17:11:10;;;;;;;3.15;1.77;;;;;;;20.01;57.09;96778.81;10508632;28;20545;-51
2023/04/29 17:16:29;;;;;;;1.75;1.33;;;;;;;20.00;57.00;96787.28;10508538;28;20048;-49
2023/04/29 17:21:49;;;;;;;3.05;1.85;;;;;;;19.99;56.83;96789.16;10508396;28;20481;-49
2023/04/29 17:27:09;;;;;;;2.83;1.70;;;;;;;19.99;57.17;96793.78;10508509;28;20094;-56
2023/04/29 17:32:29;;;;;;;3.55;1.70;;;;;;;19.99;57.43;96804.59;10508170;28;20040;-53
2023/04/29 17:37:49;;;;;;;2.78;1.75;;;;;;;19.99;57.30;96820.81;10508256;28;20055;-47
2023/04/29 17:43:08;;;;;;;2.33;1.80;;;;;;;20.00;57.25;96834.03;10508023;28;20044;-48
2023/04/29 17:48:28;;;;;;;4.28;1.90;;;;;;;19.99;57.05;96837.06;10499877;28;20059;-49
2023/04/29 17:53:47;;;;;;;6.03;1.92;;;;;;;19.99;57.62;96842.47;10507861;28;20041;-49
2023/04/29 17:59:07;;;;;;;5.80;1.73;;;;;;;19.98;57.32;96854.41;10507801;28;20124;-48
2023/04/29 18:04:26;;;;;;;3.40;1.60;;;;;;;19.96;56.97;96870.94;10507524;28;20044;-50
2023/04/29 18:09:46;;;;;;;6.53;1.95;;;;;;;19.94;56.82;96876.69;10514502;28;20051;-49
2023/04/29 18:15:08;;;;;;;2.40;1.42;;;;;;;19.94;56.65;96878.59;10514986;28;20037;-50
2023/04/29 18:20:28;;;;;;;3.40;1.95;;;;;;;19.93;56.29;96891.31;10514796;28;20043;-49
2023/04/29 18:25:47;;;;;;;3.58;2.10;;;;;;;19.91;55.90;96884.63;10514600;28;20052;-46
2023/04/29 18:31:07;;;;;;;3.45;1.40;;;;;;;19.91;56.29;96901.66;10514350;28;20055;-50
2023/04/29 18:36:26;;;;;;;3.50;1.38;;;;;;;19.90;56.21;96905.47;10503051;28;20075;-49
2023/04/29 18:41:46;;;;;;;3.38;1.67;;;;;;;19.89;56.44;96916.63;10513956;28;20060;-50
2023/04/29 18:47:06;;;;;;;3.47;1.33;;;;;;;19.90;56.75;96920.91;10513777;28;20048;-48
2023/04/29 18:52:26;;;;;;;1.63;1.38;;;;;;;19.89;56.82;96919.31;10513636;28;20097;-47
2023/04/29 18:57:46;;;;;;;5.25;1.65;;;;;;;19.90;57.25;96929.03;10499633;28;20090;-45
2023/04/29 19:03:05;;;;;;;9.15;1.80;;;;;;;19.88;56.94;96929.34;10513136;28;20036;-47
2023/04/29 19:08:25;;;;;;;3.15;1.70;;;;;;;19.89;57.20;96941.72;10513082;28;20055;-50
2023/04/29 19:13:45;;;;;;;1.63;1.35;;;;;;;19.89;57.19;96949.06;10512692;28;20048;-47
2023/04/29 19:19:05;;;;;;;2.55;1.40;;;;;;;19.87;56.25;96948.59;10512003;28;20048;-48
2023/04/29 19:24:25;;;;;;;2.53;1.30;;;;;;;19.85;56.00;96948.13;10512312;28;20040;-46
2023/04/29 19:29:44;;;;;;;2.95;1.85;;;;;;;19.83;55.64;96959.25;10512146;28;20449;-49
2023/04/29 19:35:04;;;;;;;5.47;1.77;;;;;;;19.83;55.97;96953.84;10504472;28;20064;-47
2023/04/29 19:40:24;;;;;;;3.55;1.83;;;;;;;19.82;55.63;96963.06;10498187;28;20107;-46
2023/04/29 19:45:44;;;;;;;2.95;1.70;;;;;;;19.81;56.31;96966.88;10497683;28;20113;-48
2023/04/29 19:51:07;;;;;;;2.05;1.35;;;;;;;19.82;56.74;96970.41;10511225;28;20045;-49
2023/04/29 19:56:27;;;;;;;3.58;2.05;;;;;;;19.82;56.84;96971.19;10495364;28;20041;-46
2023/04/29 20:01:47;;;;;;;2.67;1.77;;;;;;;19.82;57.05;96970.41;10510323;28;20067;-47
2023/04/29 20:07:07;;;;;;;3.50;1.70;;;;;;;19.81;56.98;96964.19;10510269;28;20462;-46
2023/04/29 20:12:26;;;;;;;6.43;2.10;;;;;;;19.82;57.00;96965.00;10497041;28;20056;-44
2023/04/29 20:17:45;;;;;;;3.55;1.90;;;;;;;19.79;57.23;96961.00;10510018;28;20097;-45
2023/04/29 20:23:05;;;;;;;3.58;1.90;;;;;;;19.80;57.31;96964.50;10509953;28;20044;-47
2023/04/29 20:28:25;;;;;;;2.70;1.90;;;;;;;19.80;57.38;96964.50;10509725;28;20048;-45
2023/04/29 20:33:44;;;;;;;4.90;1.92;;;;;;;19.79;57.43;96968.34;10505697;28;20072;-46
2023/04/29 20:39:05;;;;;;;2.38;1.70;;;;;;;19.79;57.19;96979.94;10509496;28;20668;-48
2023/04/29 20:44:26;;;;;;;3.97;1.80;;;;;;;19.77;57.07;96976.75;10509337;28;20044;-47
2023/04/29 20:49:46;;;;;;;5.80;1.67;;;;;;;19.77;57.03;96981.38;10496041;28;20131;-47
2023/04/29 20:55:05;;;;;;;1.90;1.50;;;;;;;19.75;56.86;96979.00;10509076;28;20033;-47
2023/04/29 21:00:25;;;;;;;2.30;2.10;;;;;;;19.74;56.88;96988.22;10495866;28;20052;-46
2023/04/29 21:05:44;;;;;;;2.88;1.73;;;;;;;19.73;56.92;96992.03;10508827;28;20045;-46
2023/04/29 21:11:06;;;;;;;2.40;1.67;;;;;;;19.73;56.94;96989.31;10508901;28;20450;-46
2023/04/29 21:16:26;;;;;;;3.10;1.90;;;;;;;19.72;56.93;96996.66;10508566;28;20048;-48
2023/04/29 21:21:45;;;;;;;2.83;2.03;;;;;;;19.72;56.89;97012.06;10508663;28;20041;-46
2023/04/29 21:27:04;;;;;;;3.00;1.88;;;;;;;19.71;56.96;97015.84;10508351;28;20048;-49
2023/04/29 21:32:24;;;;;;;2.30;1.92;;;;;;;19.69;56.78;97005.34;10508444;28;20048;-46
2023/04/29 21:37:44;;;;;;;2.78;1.75;;;;;;;19.68;56.83;97006.47;10508682;28;20037;-46
2023/04/29 21:43:04;;;;;;;3.03;1.85;;;;;;;19.68;56.78;97013.78;10499436;28;20051;-49
2023/04/29 21:48:25;;;;;;;3.78;1.58;;;;;;;19.67;56.76;97015.69;10516157;28;20493;-46
2023/04/29 21:53:44;;;;;;;2.22;1.80;;;;;;;19.66;56.61;97016.00;10515990;28;20041;-46
2023/04/29 21:59:04;;;;;;;2.33;1.52;;;;;;;19.66;56.54;97018.72;10515670;28;20036;-47
2023/04/29 22:04:25;;;;;;;2.83;1.98;;;;;;;19.65;56.58;97017.13;10515688;28;20405;-46
2023/04/29 22:09:48;;;;;;;2.30;1.52;;;;;;;19.65;56.54;97022.53;10515414;28;20056;-46
2023/04/29 22:15:08;;;;;;;3.60;1.73;;;;;;;19.64;56.57;97029.84;10515114;28;20093;-47
2023/04/29 22:20:27;;;;;;;2.45;1.65;;;;;;;19.64;56.50;97037.16;10514823;28;20477;-46
2023/04/29 22:25:47;;;;;;;1.75;1.65;;;;;;;19.62;56.35;97037.50;10514740;28;20381;-46
2023/04/29 22:31:07;;;;;;;3.25;1.80;;;;;;;19.62;56.24;97036.69;10514694;28;20044;-48
2023/04/29 22:36:26;;;;;;;2.88;1.60;;;;;;;19.59;56.33;97035.41;10503240;28;20106;-49
2023/04/29 22:41:45;;;;;;;2.30;1.80;;;;;;;19.60;56.31;97041.59;10514200;28;20048;-47
2023/04/29 22:47:05;;;;;;;1.58;1.48;;;;;;;19.60;56.27;97041.59;10513942;28;20052;-46
2023/04/29 22:52:26;;;;;;;1.67;1.50;;;;;;;19.59;56.23;97040.03;10512793;28;20048;-48
2023/04/29 22:57:49;;;;;;;2.58;1.52;;;;;;;19.57;56.24;97032.25;10513318;28;20040;-47
2023/04/29 23:03:08;;;;;;;2.22;1.65;;;;;;;19.56;56.33;97042.25;10513407;28;20055;-47
2023/04/29 23:08:28;;;;;;;2.13;1.48;;;;;;;19.56;56.28;97054.97;10513015;28;20048;-46
2023/04/29 23:13:47;;;;;;;2.25;1.52;;;;;;;19.55;56.26;97045.28;10512917;28;20036;-49
2023/04/29 23:19:07;;;;;;;1.67;1.45;;;;;;;19.55;56.15;97048.75;10512465;28;20043;-47
2023/04/29 23:24:27;;;;;;;1.35;1.25;;;;;;;19.53;56.13;97048.28;10512382;28;20036;-47
2023/04/29 23:29:47;;;;;;;1.50;1.40;;;;;;;19.53;56.02;97056.41;10512200;28;20040;-46
2023/04/29 23:35:07;;;;;;;3.95;1.42;;;;;;;19.51;56.02;97064.03;10504637;28;20504;-46
2023/04/29 23:40:26;;;;;;;1.42;1.33;;;;;;;19.51;55.96;97058.63;10511794;28;20050;-48
2023/04/29 23:45:46;;;;;;;2.97;1.60;;;;;;;19.51;55.95;97061.31;10511508;28;20098;-47
2023/04/29 23:51:05;;;;;;;2.88;1.50;;;;;;;19.50;55.98;97067.84;10498024;28;20083;-49
2023/04/29 23:56:27;;;;;;;2.53;1.70;;;;;;;19.49;56.05;97071.66;10511019;28;20484;-46
